sensor_id;sensor_type;location;lat;lon;timestamp;pressure;altitude;pressure_sealevel;temperature;humidity
55315;BME280;41619;42.816;23.226;2023-06-26T00:01:41;95305.13;;;18.79;77.30
55315;BME280;41619;42.816;23.226;2023-06-26T00:04:07;95302.34;;;18.79;77.37
55315;BME280;41619;42.816;23.226;2023-06-26T00:06:33;95306.69;;;18.80;77.34
55315;BME280;41619;42.816;23.226;2023-06-26T00:08:58;95304.31;;;18.79;77.48
55315;BME280;41619;42.816;23.226;2023-06-26T00:11:24;95306.31;;;18.78;77.34
55315;BME280;41619;42.816;23.226;2023-06-26T00:13:50;95301.94;;;18.77;77.64
55315;BME280;41619;42.816;23.226;2023-06-26T00:16:15;95304.38;;;18.75;77.56
55315;BME280;41619;42.816;23.226;2023-06-26T00:18:40;95305.16;;;18.75;77.59
55315;BME280;41619;42.816;23.226;2023-06-26T00:21:06;95309.13;;;18.74;77.64
55315;BME280;41619;42.816;23.226;2023-06-26T00:23:31;95303.16;;;18.76;77.63
55315;BME280;41619;42.816;23.226;2023-06-26T00:25:58;95296.06;;;18.75;77.76
55315;BME280;41619;42.816;23.226;2023-06-26T00:28:23;95301.94;;;18.77;77.82
55315;BME280;41619;42.816;23.226;2023-06-26T00:30:48;95293.63;;;18.77;77.80
55315;BME280;41619;42.816;23.226;2023-06-26T00:33:14;95294.41;;;18.77;77.46
55315;BME280;41619;42.816;23.226;2023-06-26T00:35:40;95294.03;;;18.79;77.89
55315;BME280;41619;42.816;23.226;2023-06-26T00:38:06;95299.13;;;18.81;77.76
55315;BME280;41619;42.816;23.226;2023-06-26T00:40:31;95294.75;;;18.83;77.33
55315;BME280;41619;42.816;23.226;2023-06-26T00:42:56;95287.97;;;18.84;77.33
55315;BME280;41619;42.816;23.226;2023-06-26T00:45:22;95284.00;;;18.85;77.47
55315;BME280;41619;42.816;23.226;2023-06-26T00:47:48;95291.91;;;18.87;77.32
55315;BME280;41619;42.816;23.226;2023-06-26T00:50:13;95278.81;;;18.87;77.49
55315;BME280;41619;42.816;23.226;2023-06-26T00:52:41;95289.91;;;18.87;77.48
55315;BME280;41619;42.816;23.226;2023-06-26T00:55:07;95285.56;;;18.86;77.55
55315;BME280;41619;42.816;23.226;2023-06-26T00:57:32;95282.78;;;18.86;77.43
55315;BME280;41619;42.816;23.226;2023-06-26T00:59:59;95279.66;;;18.84;77.29
55315;BME280;41619;42.816;23.226;2023-06-26T01:02:25;95274.53;;;18.83;77.19
55315;BME280;41619;42.816;23.226;2023-06-26T01:04:53;95275.41;;;18.80;77.39
55315;BME280;41619;42.816;23.226;2023-06-26T01:07:20;95278.63;;;18.74;77.50
55315;BME280;41619;42.816;23.226;2023-06-26T01:09:47;95269.25;;;18.68;77.16
55315;BME280;41619;42.816;23.226;2023-06-26T01:12:13;95265.38;;;18.62;77.52
55315;BME280;41619;42.816;23.226;2023-06-26T01:14:39;95266.59;;;18.58;77.59
55315;BME280;41619;42.816;23.226;2023-06-26T01:17:05;95262.75;;;18.52;77.72
55315;BME280;41619;42.816;23.226;2023-06-26T01:19:31;95257.69;;;18.46;77.71
55315;BME280;41619;42.816;23.226;2023-06-26T01:22:19;95252.66;;;18.41;77.99
55315;BME280;41619;42.816;23.226;2023-06-26T01:27:52;95248.06;;;18.31;77.98
55315;BME280;41619;42.816;23.226;2023-06-26T01:30:19;95257.19;;;18.28;78.09
55315;BME280;41619;42.816;23.226;2023-06-26T01:32:46;95250.53;;;18.26;78.09
55315;BME280;41619;42.816;23.226;2023-06-26T01:35:13;95251.75;;;18.21;77.98
55315;BME280;41619;42.816;23.226;2023-06-26T01:37:39;95251.03;;;18.17;78.14
55315;BME280;41619;42.816;23.226;2023-06-26T01:40:05;95250.72;;;18.11;78.30
55315;BME280;41619;42.816;23.226;2023-06-26T01:42:32;95238.94;;;18.07;78.33
55315;BME280;41619;42.816;23.226;2023-06-26T01:45:04;95239.78;;;18.04;78.70
55315;BME280;41619;42.816;23.226;2023-06-26T01:47:36;95238.59;;;18.02;78.53
55315;BME280;41619;42.816;23.226;2023-06-26T01:50:06;95241.78;;;18.00;78.57
55315;BME280;41619;42.816;23.226;2023-06-26T01:53:10;95235.09;;;17.98;78.61
55315;BME280;41619;42.816;23.226;2023-06-26T01:55:47;95234.31;;;17.97;78.66
55315;BME280;41619;42.816;23.226;2023-06-26T01:58:16;95236.31;;;17.97;78.69
55315;BME280;41619;42.816;23.226;2023-06-26T02:00:43;95240.66;;;17.98;78.70
55315;BME280;41619;42.816;23.226;2023-06-26T02:03:08;95235.16;;;17.94;78.74
55315;BME280;41619;42.816;23.226;2023-06-26T02:05:34;95238.34;;;17.93;78.80
55315;BME280;41619;42.816;23.226;2023-06-26T02:07:59;95242.75;;;17.90;78.92
55315;BME280;41619;42.816;23.226;2023-06-26T02:10:26;95235.69;;;17.85;79.04
55315;BME280;41619;42.816;23.226;2023-06-26T02:12:52;95240.06;;;17.83;79.13
55315;BME280;41619;42.816;23.226;2023-06-26T02:15:17;95244.88;;;17.79;79.15
55315;BME280;41619;42.816;23.226;2023-06-26T02:17:42;95245.34;;;17.74;79.21
55315;BME280;41619;42.816;23.226;2023-06-26T02:20:08;95250.94;;;17.70;79.39
55315;BME280;41619;42.816;23.226;2023-06-26T02:22:35;95244.25;;;17.68;79.23
55315;BME280;41619;42.816;23.226;2023-06-26T02:25:01;95248.56;;;17.65;79.35
55315;BME280;41619;42.816;23.226;2023-06-26T02:27:26;95248.22;;;17.63;79.33
55315;BME280;41619;42.816;23.226;2023-06-26T02:29:51;95256.16;;;17.61;79.53
55315;BME280;41619;42.816;23.226;2023-06-26T02:32:17;95249.81;;;17.61;79.03
55315;BME280;41619;42.816;23.226;2023-06-26T02:34:42;95240.38;;;17.58;79.60
55315;BME280;41619;42.816;23.226;2023-06-26T02:37:08;95247.91;;;17.58;79.21
55315;BME280;41619;42.816;23.226;2023-06-26T02:39:34;95240.00;;;17.56;79.48
55315;BME280;41619;42.816;23.226;2023-06-26T02:42:00;95240.44;;;17.54;79.50
55315;BME280;41619;42.816;23.226;2023-06-26T02:44:25;95232.56;;;17.53;79.53
55315;BME280;41619;42.816;23.226;2023-06-26T02:46:50;95230.19;;;17.51;79.61
55315;BME280;41619;42.816;23.226;2023-06-26T02:49:16;95230.19;;;17.51;79.67
55315;BME280;41619;42.816;23.226;2023-06-26T02:51:41;95239.28;;;17.52;79.77
55315;BME280;41619;42.816;23.226;2023-06-26T02:54:07;95240.84;;;17.53;79.70
55315;BME280;41619;42.816;23.226;2023-06-26T02:56:32;95245.59;;;17.52;79.65
55315;BME280;41619;42.816;23.226;2023-06-26T02:58:58;95245.25;;;17.50;79.59
55315;BME280;41619;42.816;23.226;2023-06-26T03:01:23;95250.41;;;17.48;79.66
55315;BME280;41619;42.816;23.226;2023-06-26T03:03:49;95243.69;;;17.46;79.77
55315;BME280;41619;42.816;23.226;2023-06-26T03:06:15;95242.97;;;17.42;79.76
55315;BME280;41619;42.816;23.226;2023-06-26T03:08:41;95250.88;;;17.40;79.98
55315;BME280;41619;42.816;23.226;2023-06-26T03:11:07;95246.97;;;17.37;79.87
55315;BME280;41619;42.816;23.226;2023-06-26T03:13:36;95247.38;;;17.36;79.90
55315;BME280;41619;42.816;23.226;2023-06-26T03:16:05;95249.00;;;17.33;79.90
55315;BME280;41619;42.816;23.226;2023-06-26T03:18:30;95249.84;;;17.30;79.90
55315;BME280;41619;42.816;23.226;2023-06-26T03:20:56;95244.69;;;17.29;79.86
55315;BME280;41619;42.816;23.226;2023-06-26T03:23:22;95245.88;;;17.27;80.10
55315;BME280;41619;42.816;23.226;2023-06-26T03:25:48;95240.34;;;17.27;80.18
55315;BME280;41619;42.816;23.226;2023-06-26T03:28:13;95242.75;;;17.25;80.23
55315;BME280;41619;42.816;23.226;2023-06-26T03:30:39;95242.75;;;17.25;80.16
55315;BME280;41619;42.816;23.226;2023-06-26T03:33:04;95254.59;;;17.26;80.14
55315;BME280;41619;42.816;23.226;2023-06-26T03:35:30;95251.00;;;17.29;79.98
55315;BME280;41619;42.816;23.226;2023-06-26T03:37:55;95250.22;;;17.29;80.15
55315;BME280;41619;42.816;23.226;2023-06-26T03:40:21;95251.81;;;17.30;80.13
55315;BME280;41619;42.816;23.226;2023-06-26T03:42:46;95244.69;;;17.29;80.23
55315;BME280;41619;42.816;23.226;2023-06-26T03:45:11;95242.69;;;17.33;80.14
55315;BME280;41619;42.816;23.226;2023-06-26T03:47:37;95245.81;;;17.35;80.14
55315;BME280;41619;42.816;23.226;2023-06-26T03:50:02;95248.53;;;17.38;80.39
55315;BME280;41619;42.816;23.226;2023-06-26T03:52:28;95244.94;;;17.41;80.26
55315;BME280;41619;42.816;23.226;2023-06-26T03:54:57;95246.09;;;17.44;80.19
55315;BME280;41619;42.816;23.226;2023-06-26T03:57:22;95245.25;;;17.47;80.30
55315;BME280;41619;42.816;23.226;2023-06-26T03:59:48;95252.75;;;17.50;80.27
55315;BME280;41619;42.816;23.226;2023-06-26T04:02:13;95261.00;;;17.53;80.33
55315;BME280;41619;42.816;23.226;2023-06-26T04:04:38;95267.69;;;17.56;80.24
55315;BME280;41619;42.816;23.226;2023-06-26T04:07:04;95264.50;;;17.58;80.18
55315;BME280;41619;42.816;23.226;2023-06-26T04:09:29;95262.50;;;17.58;80.20
55315;BME280;41619;42.816;23.226;2023-06-26T04:11:55;95255.00;;;17.59;80.22
55315;BME280;41619;42.816;23.226;2023-06-26T04:14:20;95263.66;;;17.61;80.16
55315;BME280;41619;42.816;23.226;2023-06-26T04:16:46;95261.69;;;17.61;80.51
55315;BME280;41619;42.816;23.226;2023-06-26T04:19:11;95260.06;;;17.64;80.18
55315;BME280;41619;42.816;23.226;2023-06-26T04:21:37;95267.56;;;17.67;80.11
55315;BME280;41619;42.816;23.226;2023-06-26T04:24:02;95265.91;;;17.73;80.13
55315;BME280;41619;42.816;23.226;2023-06-26T04:26:28;95268.63;;;17.76;80.25
55315;BME280;41619;42.816;23.226;2023-06-26T04:28:54;95269.38;;;17.80;80.22
55315;BME280;41619;42.816;23.226;2023-06-26T04:31:19;95267.72;;;17.87;80.37
55315;BME280;41619;42.816;23.226;2023-06-26T04:33:45;95267.25;;;17.92;80.01
55315;BME280;41619;42.816;23.226;2023-06-26T04:36:16;95268.75;;;17.96;80.03
55315;BME280;41619;42.816;23.226;2023-06-26T04:38:41;95261.97;;;18.01;80.24
55315;BME280;41619;42.816;23.226;2023-06-26T04:41:06;95262.28;;;18.06;80.16
55315;BME280;41619;42.816;23.226;2023-06-26T04:43:32;95264.59;;;18.11;80.12
55315;BME280;41619;42.816;23.226;2023-06-26T04:45:57;95259.34;;;18.17;80.10
55315;BME280;41619;42.816;23.226;2023-06-26T04:48:23;95261.66;;;18.22;80.12
55315;BME280;41619;42.816;23.226;2023-06-26T04:50:48;95261.97;;;18.28;79.89
55315;BME280;41619;42.816;23.226;2023-06-26T04:53:19;95265.38;;;18.35;79.75
55315;BME280;41619;42.816;23.226;2023-06-26T04:55:45;95265.66;;;18.44;79.69
55315;BME280;41619;42.816;23.226;2023-06-26T04:58:10;95267.44;;;18.55;79.31
55315;BME280;41619;42.816;23.226;2023-06-26T05:00:35;95268.88;;;18.66;79.20
55315;BME280;41619;42.816;23.226;2023-06-26T05:03:01;95261.97;;;18.78;78.82
55315;BME280;41619;42.816;23.226;2023-06-26T05:05:27;95263.69;;;18.92;78.54
55315;BME280;41619;42.816;23.226;2023-06-26T05:07:54;95279.72;;;19.04;78.53
55315;BME280;41619;42.816;23.226;2023-06-26T05:10:20;95276.72;;;19.15;78.19
55315;BME280;41619;42.816;23.226;2023-06-26T05:12:45;95277.75;;;19.24;77.87
55315;BME280;41619;42.816;23.226;2023-06-26T05:15:11;95282.31;;;19.34;77.62
55315;BME280;41619;42.816;23.226;2023-06-26T05:17:36;95279.31;;;19.45;77.31
55315;BME280;41619;42.816;23.226;2023-06-26T05:20:01;95285.03;;;19.58;77.11
55315;BME280;41619;42.816;23.226;2023-06-26T05:22:29;95282.03;;;19.69;76.68
55315;BME280;41619;42.816;23.226;2023-06-26T05:24:55;95292.16;;;19.79;76.21
55315;BME280;41619;42.816;23.226;2023-06-26T05:27:24;95282.53;;;19.83;75.80
55315;BME280;41619;42.816;23.226;2023-06-26T05:29:50;95285.22;;;19.87;75.72
55315;BME280;41619;42.816;23.226;2023-06-26T05:32:16;95282.31;;;19.94;75.19
55315;BME280;41619;42.816;23.226;2023-06-26T05:34:48;95282.91;;;20.02;75.07
55315;BME280;41619;42.816;23.226;2023-06-26T05:37:20;95283.03;;;20.14;74.95
55315;BME280;41619;42.816;23.226;2023-06-26T05:39:46;95282.72;;;20.29;74.62
55315;BME280;41619;42.816;23.226;2023-06-26T05:42:14;95289.13;;;20.45;74.02
55315;BME280;41619;42.816;23.226;2023-06-26T05:44:39;95290.66;;;20.63;73.72
55315;BME280;41619;42.816;23.226;2023-06-26T05:47:05;95293.09;;;20.77;73.37
55315;BME280;41619;42.816;23.226;2023-06-26T05:49:31;95293.63;;;20.88;72.76
55315;BME280;41619;42.816;23.226;2023-06-26T05:51:56;95292.13;;;21.00;72.32
55315;BME280;41619;42.816;23.226;2023-06-26T05:54:24;95288.03;;;21.04;71.84
55315;BME280;41619;42.816;23.226;2023-06-26T05:56:56;95288.38;;;21.06;71.58
55315;BME280;41619;42.816;23.226;2023-06-26T05:59:22;95293.84;;;21.10;71.29
55315;BME280;41619;42.816;23.226;2023-06-26T06:01:47;95286.28;;;21.10;71.05
55315;BME280;41619;42.816;23.226;2023-06-26T06:04:13;95289.75;;;21.14;70.69
55315;BME280;41619;42.816;23.226;2023-06-26T06:06:38;95295.94;;;21.22;70.41
55315;BME280;41619;42.816;23.226;2023-06-26T06:09:04;95284.63;;;21.29;69.71
55315;BME280;41619;42.816;23.226;2023-06-26T06:11:29;95286.34;;;21.39;69.59
55315;BME280;41619;42.816;23.226;2023-06-26T06:13:54;95292.50;;;21.47;69.14
55315;BME280;41619;42.816;23.226;2023-06-26T06:16:20;95288.81;;;21.50;68.92
55315;BME280;41619;42.816;23.226;2023-06-26T06:18:45;95289.16;;;21.52;68.78
55315;BME280;41619;42.816;23.226;2023-06-26T06:21:10;95292.50;;;21.47;68.35
55315;BME280;41619;42.816;23.226;2023-06-26T06:23:36;95288.75;;;21.37;68.52
55315;BME280;41619;42.816;23.226;2023-06-26T06:26:03;95287.75;;;21.31;68.48
55315;BME280;41619;42.816;23.226;2023-06-26T06:28:28;95283.06;;;21.28;68.48
55315;BME280;41619;42.816;23.226;2023-06-26T06:30:54;95281.94;;;21.26;68.20
55315;BME280;41619;42.816;23.226;2023-06-26T06:33:19;95283.06;;;21.28;68.06
55315;BME280;41619;42.816;23.226;2023-06-26T06:35:45;95285.84;;;21.28;67.84
55315;BME280;41619;42.816;23.226;2023-06-26T06:38:10;95272.72;;;21.29;67.79
55315;BME280;41619;42.816;23.226;2023-06-26T06:40:35;95276.28;;;21.29;67.57
55315;BME280;41619;42.816;23.226;2023-06-26T06:43:01;95282.00;;;21.38;67.29
55315;BME280;41619;42.816;23.226;2023-06-26T06:45:26;95278.56;;;21.47;67.19
55315;BME280;41619;42.816;23.226;2023-06-26T06:47:51;95278.94;;;21.62;66.96
55315;BME280;41619;42.816;23.226;2023-06-26T06:50:17;95279.97;;;21.68;66.64
55315;BME280;41619;42.816;23.226;2023-06-26T06:52:43;95284.47;;;21.78;66.20
55315;BME280;41619;42.816;23.226;2023-06-26T06:55:09;95282.47;;;21.91;65.67
55315;BME280;41619;42.816;23.226;2023-06-26T06:57:39;95280.84;;;22.06;65.34
55315;BME280;41619;42.816;23.226;2023-06-26T07:00:09;95280.31;;;22.24;65.13
55315;BME280;41619;42.816;23.226;2023-06-26T07:02:36;95279.88;;;22.39;64.68
55315;BME280;41619;42.816;23.226;2023-06-26T07:05:03;95268.94;;;22.44;64.30
55315;BME280;41619;42.816;23.226;2023-06-26T07:07:30;95270.03;;;22.47;64.43
55315;BME280;41619;42.816;23.226;2023-06-26T07:10:01;95276.19;;;22.42;63.94
55315;BME280;41619;42.816;23.226;2023-06-26T07:12:27;95271.19;;;22.36;63.63
55315;BME280;41619;42.816;23.226;2023-06-26T07:14:52;95271.63;;;22.35;63.40
55315;BME280;41619;42.816;23.226;2023-06-26T07:17:19;95265.47;;;22.40;63.25
55315;BME280;41619;42.816;23.226;2023-06-26T07:19:44;95270.72;;;22.51;63.22
55315;BME280;41619;42.816;23.226;2023-06-26T07:22:10;95270.69;;;22.63;62.66
55315;BME280;41619;42.816;23.226;2023-06-26T07:24:36;95271.03;;;22.65;62.95
55315;BME280;41619;42.816;23.226;2023-06-26T07:27:01;95269.59;;;22.61;62.69
55315;BME280;41619;42.816;23.226;2023-06-26T07:29:27;95263.16;;;22.51;62.91
55315;BME280;41619;42.816;23.226;2023-06-26T07:31:52;95265.69;;;22.46;62.87
55315;BME280;41619;42.816;23.226;2023-06-26T07:34:17;95272.06;;;22.46;62.87
55315;BME280;41619;42.816;23.226;2023-06-26T07:36:43;95268.81;;;22.60;63.01
55315;BME280;41619;42.816;23.226;2023-06-26T07:39:08;95264.34;;;22.76;62.46
55315;BME280;41619;42.816;23.226;2023-06-26T07:41:33;95273.25;;;22.83;61.88
55315;BME280;41619;42.816;23.226;2023-06-26T07:43:59;95272.34;;;22.86;61.58
55315;BME280;41619;42.816;23.226;2023-06-26T07:46:24;95270.59;;;22.92;61.34
55315;BME280;41619;42.816;23.226;2023-06-26T07:48:50;95282.59;;;23.02;61.01
55315;BME280;41619;42.816;23.226;2023-06-26T07:51:15;95281.13;;;23.10;60.51
55315;BME280;41619;42.816;23.226;2023-06-26T07:53:40;95276.53;;;23.16;60.59
55315;BME280;41619;42.816;23.226;2023-06-26T07:56:06;95280.19;;;23.26;59.90
55315;BME280;41619;42.816;23.226;2023-06-26T07:58:31;95282.59;;;23.37;59.87
55315;BME280;41619;42.816;23.226;2023-06-26T08:00:57;95275.56;;;23.45;59.39
55315;BME280;41619;42.816;23.226;2023-06-26T08:03:22;95278.53;;;23.50;59.17
55315;BME280;41619;42.816;23.226;2023-06-26T08:05:48;95281.97;;;23.54;59.02
55315;BME280;41619;42.816;23.226;2023-06-26T08:08:14;95277.94;;;23.55;58.75
55315;BME280;41619;42.816;23.226;2023-06-26T08:10:39;95281.19;;;23.54;58.65
55315;BME280;41619;42.816;23.226;2023-06-26T08:13:05;95274.97;;;23.50;58.52
55315;BME280;41619;42.816;23.226;2023-06-26T08:15:30;95274.97;;;23.50;58.56
55315;BME280;41619;42.816;23.226;2023-06-26T08:17:55;95271.09;;;23.69;58.58
55315;BME280;41619;42.816;23.226;2023-06-26T08:20:21;95268.47;;;23.97;58.43
55315;BME280;41619;42.816;23.226;2023-06-26T08:22:47;95272.91;;;24.16;57.56
55315;BME280;41619;42.816;23.226;2023-06-26T08:25:14;95271.72;;;24.26;57.19
55315;BME280;41619;42.816;23.226;2023-06-26T08:27:40;95270.06;;;24.29;56.54
55315;BME280;41619;42.816;23.226;2023-06-26T08:30:05;95263.56;;;24.32;56.57
55315;BME280;41619;42.816;23.226;2023-06-26T08:32:31;95274.72;;;24.32;56.45
55315;BME280;41619;42.816;23.226;2023-06-26T08:34:56;95272.88;;;24.29;56.21
55315;BME280;41619;42.816;23.226;2023-06-26T08:37:22;95261.31;;;24.27;55.61
55315;BME280;41619;42.816;23.226;2023-06-26T08:39:48;95264.28;;;24.23;55.86
55315;BME280;41619;42.816;23.226;2023-06-26T08:42:13;95265.19;;;24.20;55.67
55315;BME280;41619;42.816;23.226;2023-06-26T08:44:39;95263.66;;;24.28;55.79
55315;BME280;41619;42.816;23.226;2023-06-26T08:47:04;95267.78;;;24.36;55.13
55315;BME280;41619;42.816;23.226;2023-06-26T08:52:16;95271.63;;;24.30;55.65
55315;BME280;41619;42.816;23.226;2023-06-26T08:54:45;95268.38;;;24.31;55.54
55315;BME280;41619;42.816;23.226;2023-06-26T08:57:15;95264.41;;;24.51;55.29
55315;BME280;41619;42.816;23.226;2023-06-26T08:59:42;95257.78;;;24.66;54.63
55315;BME280;41619;42.816;23.226;2023-06-26T09:02:08;95261.66;;;24.60;54.71
55315;BME280;41619;42.816;23.226;2023-06-26T09:04:34;95263.63;;;24.50;54.76
55315;BME280;41619;42.816;23.226;2023-06-26T09:06:59;95267.50;;;24.43;54.49
55315;BME280;41619;42.816;23.226;2023-06-26T09:09:25;95260.50;;;24.39;54.51
55315;BME280;41619;42.816;23.226;2023-06-26T09:11:50;95261.59;;;24.41;54.81
55315;BME280;41619;42.816;23.226;2023-06-26T09:14:16;95260.50;;;24.48;54.33
55315;BME280;41619;42.816;23.226;2023-06-26T09:16:42;95256.63;;;24.45;53.95
55315;BME280;41619;42.816;23.226;2023-06-26T09:19:11;95250.41;;;24.41;53.62
55315;BME280;41619;42.816;23.226;2023-06-26T09:21:40;95246.31;;;24.33;53.78
55315;BME280;41619;42.816;23.226;2023-06-26T09:24:07;95248.38;;;24.42;53.92
55315;BME280;41619;42.816;23.226;2023-06-26T09:26:38;95252.00;;;24.61;53.84
55315;BME280;41619;42.816;23.226;2023-06-26T09:29:05;95256.69;;;24.64;53.25
55315;BME280;41619;42.816;23.226;2023-06-26T09:31:30;95249.81;;;24.56;52.92
55315;BME280;41619;42.816;23.226;2023-06-26T09:34:00;95256.00;;;24.51;53.04
55315;BME280;41619;42.816;23.226;2023-06-26T09:36:28;95248.22;;;24.45;53.13
55315;BME280;41619;42.816;23.226;2023-06-26T09:38:54;95256.44;;;24.40;53.19
55315;BME280;41619;42.816;23.226;2023-06-26T09:41:20;95257.50;;;24.33;53.25
55315;BME280;41619;42.816;23.226;2023-06-26T09:43:49;95249.56;;;24.32;53.30
55315;BME280;41619;42.816;23.226;2023-06-26T09:46:16;95249.25;;;24.30;53.15
55315;BME280;41619;42.816;23.226;2023-06-26T09:48:41;95252.94;;;24.27;53.06
55315;BME280;41619;42.816;23.226;2023-06-26T09:51:07;95251.53;;;24.22;52.88
55315;BME280;41619;42.816;23.226;2023-06-26T09:53:35;95256.34;;;24.22;52.48
55315;BME280;41619;42.816;23.226;2023-06-26T09:56:06;95245.94;;;24.22;52.48
55315;BME280;41619;42.816;23.226;2023-06-26T09:58:32;95251.13;;;24.33;52.09
55315;BME280;41619;42.816;23.226;2023-06-26T10:00:58;95257.25;;;24.50;51.94
55315;BME280;41619;42.816;23.226;2023-06-26T10:03:23;95248.50;;;24.79;51.99
55315;BME280;41619;42.816;23.226;2023-06-26T10:05:50;95244.81;;;25.00;51.44
55315;BME280;41619;42.816;23.226;2023-06-26T10:08:17;95251.66;;;25.08;51.11
55315;BME280;41619;42.816;23.226;2023-06-26T10:10:43;95244.50;;;25.07;50.90
55315;BME280;41619;42.816;23.226;2023-06-26T10:13:21;95251.50;;;25.02;51.22
55315;BME280;41619;42.816;23.226;2023-06-26T10:15:48;95259.59;;;25.00;51.57
55315;BME280;41619;42.816;23.226;2023-06-26T10:18:16;95256.91;;;24.97;51.76
55315;BME280;41619;42.816;23.226;2023-06-26T10:20:44;95257.97;;;24.90;51.81
55315;BME280;41619;42.816;23.226;2023-06-26T10:23:11;95263.88;;;24.83;51.76
55315;BME280;41619;42.816;23.226;2023-06-26T10:25:40;95261.38;;;24.76;51.88
55315;BME280;41619;42.816;23.226;2023-06-26T10:28:08;95254.50;;;24.68;52.10
55315;BME280;41619;42.816;23.226;2023-06-26T10:30:36;95256.06;;;24.60;52.67
55315;BME280;41619;42.816;23.226;2023-06-26T10:33:03;95257.56;;;24.52;52.79
55315;BME280;41619;42.816;23.226;2023-06-26T10:35:30;95248.84;;;24.50;53.24
55315;BME280;41619;42.816;23.226;2023-06-26T10:38:02;95255.69;;;24.49;53.14
55315;BME280;41619;42.816;23.226;2023-06-26T10:40:40;95249.00;;;24.46;53.00
55315;BME280;41619;42.816;23.226;2023-06-26T10:43:10;95249.78;;;24.46;52.80
55315;BME280;41619;42.816;23.226;2023-06-26T10:45:36;95244.53;;;24.58;52.86
55315;BME280;41619;42.816;23.226;2023-06-26T10:48:02;95244.13;;;24.77;52.80
55315;BME280;41619;42.816;23.226;2023-06-26T10:50:31;95239.69;;;25.08;52.30
55315;BME280;41619;42.816;23.226;2023-06-26T10:55:55;95241.25;;;25.27;51.28
55315;BME280;41619;42.816;23.226;2023-06-26T11:03:41;95242.81;;;25.55;50.71
55315;BME280;41619;42.816;23.226;2023-06-26T11:09:01;95236.22;;;26.04;49.79
55315;BME280;41619;42.816;23.226;2023-06-26T11:14:24;95229.06;;;26.03;49.46
55315;BME280;41619;42.816;23.226;2023-06-26T11:16:50;95235.28;;;25.98;49.45
55315;BME280;41619;42.816;23.226;2023-06-26T11:19:20;95230.75;;;26.10;49.45
55315;BME280;41619;42.816;23.226;2023-06-26T11:21:45;95220.88;;;26.23;49.36
55315;BME280;41619;42.816;23.226;2023-06-26T11:24:12;95229.91;;;26.27;49.07
55315;BME280;41619;42.816;23.226;2023-06-26T11:26:42;95224.63;;;26.20;48.98
55315;BME280;41619;42.816;23.226;2023-06-26T18:56:58;95346.50;;;21.50;63.99
55315;BME280;41619;42.816;23.226;2023-06-26T18:59:27;95358.19;;;21.44;64.16
55315;BME280;41619;42.816;23.226;2023-06-26T19:01:52;95360.72;;;21.39;64.66
55315;BME280;41619;42.816;23.226;2023-06-26T19:04:18;95362.81;;;21.35;65.08
55315;BME280;41619;42.816;23.226;2023-06-26T19:06:46;95355.78;;;21.30;65.30
55315;BME280;41619;42.816;23.226;2023-06-26T19:09:11;95362.66;;;21.26;65.46
55315;BME280;41619;42.816;23.226;2023-06-26T19:11:37;95373.13;;;21.18;65.68
55315;BME280;41619;42.816;23.226;2023-06-26T19:14:02;95370.53;;;21.11;66.06
55315;BME280;41619;42.816;23.226;2023-06-26T19:16:27;95381.84;;;21.04;66.22
55315;BME280;41619;42.816;23.226;2023-06-26T19:18:53;95376.88;;;20.95;66.45
55315;BME280;41619;42.816;23.226;2023-06-26T19:21:20;95385.41;;;20.88;66.76
55315;BME280;41619;42.816;23.226;2023-06-26T19:23:46;95382.44;;;20.79;67.05
55315;BME280;41619;42.816;23.226;2023-06-26T19:26:11;95390.97;;;20.72;67.38
55315;BME280;41619;42.816;23.226;2023-06-26T19:28:37;95393.03;;;20.68;67.55
55315;BME280;41619;42.816;23.226;2023-06-26T19:31:02;95390.34;;;20.64;67.86
55315;BME280;41619;42.816;23.226;2023-06-26T19:33:28;95397.97;;;20.60;68.14
55315;BME280;41619;42.816;23.226;2023-06-26T19:35:53;95392.50;;;20.56;68.23
55315;BME280;41619;42.816;23.226;2023-06-26T19:38:18;95401.34;;;20.51;68.43
55315;BME280;41619;42.816;23.226;2023-06-26T19:40:44;95403.00;;;20.49;68.64
55315;BME280;41619;42.816;23.226;2023-06-26T19:43:10;95395.53;;;20.46;68.66
55315;BME280;41619;42.816;23.226;2023-06-26T19:45:35;95398.78;;;20.41;68.99
55315;BME280;41619;42.816;23.226;2023-06-26T19:48:00;95406.06;;;20.35;68.94
55315;BME280;41619;42.816;23.226;2023-06-26T19:50:26;95405.00;;;20.29;68.92
55315;BME280;41619;42.816;23.226;2023-06-26T19:52:51;95396.78;;;20.21;68.92
55315;BME280;41619;42.816;23.226;2023-06-26T19:55:17;95397.66;;;20.18;68.77
55315;BME280;41619;42.816;23.226;2023-06-26T19:57:43;95393.81;;;20.12;68.78
55315;BME280;41619;42.816;23.226;2023-06-26T20:00:09;95397.94;;;20.04;68.71
55315;BME280;41619;42.816;23.226;2023-06-26T20:02:35;95401.72;;;19.94;68.68
55315;BME280;41619;42.816;23.226;2023-06-26T20:05:01;95404.63;;;19.87;68.79
55315;BME280;41619;42.816;23.226;2023-06-26T20:07:28;95402.78;;;19.80;68.69
55315;BME280;41619;42.816;23.226;2023-06-26T20:09:53;95410.47;;;19.73;68.71
55315;BME280;41619;42.816;23.226;2023-06-26T20:12:18;95412.59;;;19.65;68.65
55315;BME280;41619;42.816;23.226;2023-06-26T20:14:44;95405.97;;;19.59;68.60
55315;BME280;41619;42.816;23.226;2023-06-26T20:17:09;95400.94;;;19.50;68.71
55315;BME280;41619;42.816;23.226;2023-06-26T20:19:35;95405.84;;;19.43;68.92
55315;BME280;41619;42.816;23.226;2023-06-26T20:22:00;95404.03;;;19.32;69.00
55315;BME280;41619;42.816;23.226;2023-06-26T20:24:25;95411.34;;;19.23;69.18
55315;BME280;41619;42.816;23.226;2023-06-26T20:26:52;95409.47;;;19.16;69.28
55315;BME280;41619;42.816;23.226;2023-06-26T20:29:19;95409.50;;;19.13;69.44
55315;BME280;41619;42.816;23.226;2023-06-26T20:31:44;95408.78;;;19.09;69.30
55315;BME280;41619;42.816;23.226;2023-06-26T20:34:10;95404.09;;;19.05;69.58